Terminal Aerodrome Forecast
Issued by NWS

Home | Current Version | Previous Version | Graphics & Text | Print | Product List | Glossary On
Versions: 1 2 3 4 5 6 7 8 9 10 11 12 13 14 15 16 17 18 19
012
FTUS43 KMPX 231213 CCA
TAFAXN
TAF COR
KAXN 231213Z 2312/2412 05011KT P6SM SCT015 BKN080
      TEMPO 2312/2315 BKN015
     FM231700 09013KT P6SM SCT030 BKN050
     FM232200 09014KT P6SM BKN100
     FM240900 12014KT P6SM BKN120 WS020/18040KT=

USA.gov is the U.S. government's official web portal to all federal, state and local government web resources and services.